createdAt,value
2023-03-02T02:40:53.372Z,99.25
2023-03-02T02:45:05.523Z,99.89
2023-03-02T04:03:12.233Z,100.00
2023-03-02T04:06:19.371Z,100.00
2023-03-02T04:09:24.400Z,100.00
2023-03-02T04:12:28.251Z,100.00
2023-03-02T04:15:34.834Z,100.00
2023-03-02T07:04:49.423Z,100.00
2023-03-02T07:07:53.634Z,100.00
2023-03-02T07:10:56.828Z,100.00
2023-03-02T07:14:03.616Z,100.00
2023-03-02T07:17:07.135Z,100.00
2023-03-02T07:20:12.296Z,100.00
2023-03-02T07:23:15.486Z,100.00
2023-03-02T07:26:18.668Z,100.00
2023-03-02T07:29:22.860Z,100.00
2023-03-02T07:32:25.778Z,100.00
2023-03-02T07:35:29.142Z,100.00
2023-03-02T07:38:33.999Z,100.00
2023-03-02T07:41:38.725Z,100.00
2023-03-02T07:44:46.216Z,100.00
2023-03-02T07:48:13.531Z,100.00
2023-03-02T08:02:34.373Z,100.00
2023-03-02T08:09:09.259Z,100.00
2023-03-02T08:12:12.347Z,100.00
2023-03-02T08:15:14.844Z,100.00
2023-03-02T08:18:17.744Z,100.00
2023-03-02T08:21:26.203Z,100.00
2023-03-02T08:24:34.534Z,100.00
2023-03-02T08:27:37.087Z,100.00
2023-03-02T08:30:40.113Z,100.00
2023-03-02T08:33:43.339Z,100.00
2023-03-02T08:36:46.089Z,100.00
2023-03-02T08:39:48.743Z,100.00
2023-03-02T08:42:57.239Z,100.00
2023-03-02T08:45:59.840Z,100.00
2023-03-02T08:49:02.854Z,100.00
2023-03-02T08:52:05.727Z,100.00
2023-03-02T08:55:09.739Z,100.00
2023-03-02T08:58:12.272Z,100.00
2023-03-02T09:01:21.250Z,100.00
2023-03-02T09:04:24.133Z,100.00
2023-03-02T09:07:27.179Z,100.00
2023-03-02T09:10:29.645Z,100.00
2023-03-02T09:13:32.927Z,100.00
2023-03-02T09:16:35.466Z,100.00
2023-03-02T09:19:44.372Z,100.00
2023-03-02T09:22:51.020Z,100.00
2023-03-02T09:25:54.243Z,100.00
2023-03-02T09:28:57.395Z,100.00
2023-03-02T09:32:00.582Z,100.00
2023-03-02T09:35:03.528Z,100.00
2023-03-02T09:38:06.808Z,100.00
2023-03-02T09:41:21.495Z,100.00
2023-03-02T09:44:43.174Z,100.00
2023-03-02T09:48:05.800Z,100.00
2023-03-02T09:51:14.896Z,100.00
2023-03-02T09:54:20.974Z,100.00
2023-03-02T09:57:34.136Z,100.00
2023-03-02T10:00:38.131Z,100.00
2023-03-02T10:03:58.477Z,100.00
2023-03-02T10:07:15.848Z,100.00
2023-03-02T10:10:18.810Z,100.00
2023-03-02T10:13:50.631Z,100.00
2023-03-02T10:17:11.087Z,100.00
2023-03-02T10:20:23.112Z,100.00
2023-03-02T10:23:39.871Z,100.00
2023-03-02T10:26:48.652Z,100.00
2023-03-02T10:30:10.623Z,100.00
2023-03-02T10:33:17.438Z,100.00
2023-03-02T10:36:29.209Z,100.00
2023-03-02T10:39:31.715Z,100.00
2023-03-02T10:42:38.035Z,100.00
2023-03-02T10:45:40.648Z,100.00
2023-03-02T10:48:56.525Z,100.00
2023-03-02T10:52:02.013Z,100.00
2023-03-02T10:55:14.921Z,100.00
2023-03-02T10:58:26.166Z,100.00
2023-03-02T11:01:30.573Z,100.00
2023-03-02T11:04:33.026Z,100.00
2023-03-02T11:07:36.377Z,100.00
2023-03-02T11:10:41.302Z,99.18
2023-03-02T11:13:44.473Z,95.04
2023-03-02T11:16:48.461Z,95.04
2023-03-02T11:19:52.917Z,93.45
2023-03-02T11:23:04.477Z,92.14
2023-03-02T11:26:47.759Z,93.58
2023-03-02T11:30:04.212Z,90.28
2023-03-02T11:33:25.438Z,91.06
2023-03-02T11:36:45.756Z,87.95
2023-03-02T11:39:54.984Z,87.82
2023-03-02T11:43:00.363Z,88.40
2023-03-02T11:46:13.945Z,86.99
2023-03-02T11:49:34.843Z,87.23
2023-03-02T11:52:40.070Z,85.03
2023-03-02T11:55:51.316Z,85.33
2023-03-02T11:58:57.632Z,83.90
2023-03-02T12:02:01.608Z,83.55
2023-03-02T12:05:26.650Z,83.71
2023-03-02T12:08:39.143Z,82.28
2023-03-02T12:11:46.292Z,84.97
2023-03-02T12:14:48.830Z,81.51
2023-03-02T12:17:52.304Z,83.03
2023-03-02T12:21:08.082Z,82.90
2023-03-02T12:24:28.714Z,79.43
2023-03-02T12:27:37.503Z,80.62
2023-03-02T12:30:40.347Z,80.47
2023-03-02T12:33:53.064Z,81.48
2023-03-02T12:37:16.297Z,81.49
2023-03-02T12:40:56.164Z,81.73
2023-03-02T12:44:14.169Z,82.18
2023-03-02T12:47:26.445Z,81.12
2023-03-02T12:50:32.949Z,81.77
2023-03-02T12:53:37.669Z,80.86
2023-03-02T12:56:40.948Z,79.26
2023-03-02T12:59:44.378Z,79.09
2023-03-02T13:02:49.594Z,79.03
2023-03-02T13:05:52.450Z,78.63
2023-03-02T13:08:58.207Z,75.83
2023-03-02T13:12:01.039Z,78.53
2023-03-02T13:15:04.455Z,77.52
2023-03-02T13:18:06.974Z,79.24
2023-03-02T13:21:12.487Z,78.85
2023-03-02T13:24:29.565Z,77.03
2023-03-02T13:27:34.229Z,77.99
2023-03-02T13:30:47.986Z,76.50
2023-03-02T13:33:52.750Z,77.01
2023-03-02T13:36:55.469Z,75.70
2023-03-02T13:40:00.047Z,76.09
2023-03-02T13:43:02.856Z,76.40
2023-03-02T13:46:25.021Z,73.76
2023-03-02T13:49:28.877Z,76.38
2023-03-02T13:52:31.733Z,75.06
2023-03-02T13:55:35.252Z,73.66
2023-03-02T13:58:40.378Z,74.37
2023-03-02T14:01:44.320Z,74.46
2023-03-02T14:04:47.407Z,76.05
2023-03-02T14:07:50.351Z,77.04
2023-03-02T14:10:57.615Z,76.43
2023-03-02T14:14:02.326Z,76.69
2023-03-02T14:17:13.783Z,75.31
2023-03-02T14:20:19.693Z,76.27
2023-03-02T14:23:23.340Z,76.43
2023-03-02T14:26:47.487Z,76.41
2023-03-02T14:29:50.368Z,74.81
2023-03-02T14:32:52.974Z,75.57
2023-03-02T14:35:57.544Z,75.63
2023-03-02T14:39:03.688Z,74.73
2023-03-02T14:42:12.322Z,74.93
2023-03-02T14:45:14.942Z,75.37
2023-03-02T14:48:18.289Z,75.07
2023-03-02T14:51:30.049Z,74.58
2023-03-02T14:54:39.074Z,73.31
2023-03-02T14:57:42.001Z,73.42
2023-03-02T15:00:45.492Z,72.44
2023-03-02T15:03:48.145Z,71.08
2023-03-02T15:06:51.077Z,71.52
2023-03-02T15:09:54.446Z,72.39
2023-03-02T15:12:57.736Z,71.13
2023-03-02T15:16:00.455Z,72.45
2023-03-02T15:19:03.446Z,72.39
2023-03-02T15:22:05.990Z,70.44
2023-03-02T15:25:09.721Z,73.07
2023-03-02T15:28:12.250Z,72.86
2023-03-02T15:31:17.244Z,72.27
2023-03-02T15:34:19.807Z,72.18
2023-03-02T15:37:22.766Z,72.26
2023-03-02T15:40:25.878Z,72.87
2023-03-02T15:43:28.863Z,73.64
2023-03-02T15:46:31.454Z,73.86
2023-03-02T15:49:34.393Z,75.36
2023-03-02T15:52:37.252Z,75.84
2023-03-02T15:55:43.127Z,74.07
2023-03-02T15:58:47.747Z,74.49
2023-03-02T16:01:51.038Z,74.47
2023-03-02T16:04:53.534Z,75.37
2023-03-02T16:07:56.385Z,74.58
2023-03-02T16:11:00.450Z,74.79
2023-03-02T16:14:03.939Z,76.03
2023-03-02T16:17:07.328Z,75.45
2023-03-02T16:20:11.363Z,76.43
2023-03-02T16:23:14.004Z,78.01
2023-03-02T16:26:22.303Z,77.93
2023-03-02T16:29:25.769Z,76.49
2023-03-02T16:32:30.366Z,77.38
2023-03-02T16:35:35.194Z,77.67
2023-03-02T16:38:38.890Z,79.21
2023-03-02T16:41:43.800Z,80.90
2023-03-02T16:44:48.756Z,79.18
2023-03-02T16:47:51.523Z,80.16
2023-03-02T16:50:59.276Z,82.58
2023-03-02T16:54:02.604Z,82.77
2023-03-02T16:57:06.144Z,82.27
2023-03-02T17:00:11.857Z,83.34
2023-03-02T17:03:15.100Z,83.36
2023-03-02T17:06:20.907Z,83.12
2023-03-02T17:09:24.302Z,85.24
2023-03-02T17:12:27.501Z,84.95
2023-03-02T17:15:30.451Z,85.70
2023-03-02T17:18:34.135Z,85.70
2023-03-02T17:21:37.437Z,85.24
2023-03-02T17:24:43.735Z,85.66
2023-03-02T17:27:49.258Z,87.04
2023-03-02T17:30:52.453Z,86.55
2023-03-02T17:33:57.927Z,86.61
2023-03-02T17:37:01.078Z,86.41
2023-03-02T17:40:13.625Z,86.33
2023-03-02T17:43:16.818Z,86.07
2023-03-02T17:46:25.749Z,86.09
2023-03-02T17:49:29.212Z,86.98
2023-03-02T17:52:34.609Z,87.09
2023-03-02T17:55:39.448Z,86.74
2023-03-02T17:58:45.256Z,86.95
2023-03-02T18:01:48.347Z,86.90
2023-03-02T18:04:52.321Z,87.28
2023-03-02T18:07:55.734Z,86.27
2023-03-02T18:11:00.674Z,86.27
2023-03-02T18:14:03.884Z,87.61
2023-03-02T18:17:09.571Z,89.63
2023-03-02T18:20:16.624Z,88.84
2023-03-02T18:23:21.855Z,88.26
2023-03-02T18:26:26.886Z,86.93
2023-03-02T18:29:31.495Z,87.65
2023-03-02T18:32:36.085Z,87.04
2023-03-02T18:35:41.937Z,85.29
2023-03-02T18:38:45.765Z,85.81
2023-03-02T18:41:51.746Z,86.10
2023-03-02T18:44:55.129Z,87.02
2023-03-02T18:48:02.104Z,86.67
2023-03-02T18:51:07.620Z,86.46
2023-03-02T18:54:12.620Z,86.99
2023-03-02T18:57:16.760Z,86.24
2023-03-02T19:00:26.623Z,85.87
2023-03-02T19:03:33.779Z,88.02
2023-03-02T19:06:40.287Z,88.55
2023-03-02T19:09:44.842Z,87.93
2023-03-02T19:12:48.689Z,87.75
2023-03-02T19:15:56.396Z,88.37
2023-03-02T19:19:00.481Z,88.24
2023-03-02T19:22:10.053Z,88.50
2023-03-02T19:25:14.754Z,88.90
2023-03-02T19:28:19.893Z,89.62
2023-03-02T19:31:24.907Z,87.54
2023-03-02T19:34:30.582Z,87.91
2023-03-02T19:37:35.183Z,87.80
2023-03-02T19:40:39.451Z,89.58
2023-03-02T19:43:46.877Z,90.88
2023-03-02T19:46:51.309Z,90.68
2023-03-02T19:49:55.374Z,90.99
2023-03-02T19:52:59.903Z,91.70
2023-03-02T19:56:10.707Z,91.13
2023-03-02T19:59:15.769Z,91.18
2023-03-02T20:02:23.396Z,91.21
2023-03-02T20:05:28.661Z,91.80
2023-03-02T20:08:34.697Z,92.70
2023-03-02T20:11:40.211Z,92.47
2023-03-02T20:14:49.027Z,91.27
2023-03-02T20:17:54.336Z,89.81
2023-03-02T20:21:01.219Z,89.59
2023-03-02T20:24:08.798Z,90.00
2023-03-02T20:27:15.774Z,90.13
2023-03-02T20:30:30.592Z,91.39
2023-03-02T20:33:37.395Z,92.18
2023-03-02T20:36:41.575Z,92.57
2023-03-02T20:39:48.744Z,91.94
2023-03-02T20:42:53.513Z,90.84
2023-03-02T20:45:58.689Z,90.71
2023-03-02T20:49:04.387Z,90.65
2023-03-02T20:52:09.726Z,90.94
2023-03-02T20:55:15.129Z,91.46
2023-03-02T20:58:22.011Z,92.29
2023-03-02T21:01:26.731Z,92.80
2023-03-02T21:04:30.906Z,93.67
2023-03-02T21:07:37.013Z,93.02
2023-03-02T21:10:42.074Z,92.83
2023-03-02T21:13:47.841Z,93.29
2023-03-02T21:16:52.090Z,94.71
2023-03-02T21:19:56.805Z,95.94
2023-03-02T21:23:01.003Z,95.59
2023-03-02T21:26:04.636Z,94.59
2023-03-02T21:29:10.133Z,94.25
2023-03-02T21:32:13.362Z,93.38
2023-03-02T21:35:20.908Z,93.73
2023-03-02T21:38:23.618Z,93.48
2023-03-02T21:41:27.171Z,93.98
2023-03-02T21:44:30.086Z,94.99
2023-03-02T21:47:33.474Z,95.06
2023-03-02T21:50:39.238Z,94.59
2023-03-02T21:53:42.224Z,94.13
2023-03-02T21:56:45.435Z,94.36
2023-03-02T21:59:48.543Z,94.40
2023-03-02T22:02:52.059Z,94.29
2023-03-02T22:05:55.083Z,94.96
2023-03-02T22:08:58.694Z,95.55
2023-03-02T22:12:02.211Z,95.36
2023-03-02T22:15:14.449Z,95.42
2023-03-02T22:18:20.270Z,95.04
2023-03-02T22:21:25.755Z,94.71
2023-03-02T22:24:33.609Z,95.12
2023-03-02T22:27:36.521Z,97.02
2023-03-02T22:30:39.846Z,98.03
2023-03-02T22:33:43.031Z,97.47
2023-03-02T22:36:46.186Z,97.49
2023-03-02T22:39:49.681Z,97.39
2023-03-02T22:43:12.693Z,96.76
2023-03-02T22:46:20.804Z,95.76
2023-03-02T22:49:23.902Z,95.14
2023-03-02T22:52:39.467Z,95.06
2023-03-02T22:55:43.438Z,94.45
2023-03-02T22:58:47.899Z,94.68
2023-03-02T23:02:14.217Z,94.01
2023-03-02T23:05:35.025Z,93.45
2023-03-02T23:08:38.126Z,93.20
2023-03-02T23:11:42.133Z,92.91
2023-03-02T23:14:56.548Z,93.64
2023-03-02T23:17:59.481Z,93.00
2023-03-02T23:21:02.483Z,92.65
2023-03-02T23:24:05.737Z,92.57
2023-03-02T23:27:09.879Z,92.57
2023-03-02T23:30:13.032Z,93.46
2023-03-02T23:33:16.153Z,93.79
2023-03-02T23:36:21.239Z,94.58
2023-03-02T23:39:24.953Z,94.57
2023-03-02T23:42:27.494Z,94.87
2023-03-02T23:45:30.514Z,95.17
2023-03-02T23:48:34.478Z,95.55
2023-03-02T23:51:37.490Z,96.26
2023-03-02T23:54:40.202Z,95.53
2023-03-02T23:57:43.273Z,95.38
